Time;durP1;ratioP1;P1;durP2;ratioP2;P2;SDS_P1;SDS_P2;PMS_P1;PMS_P2;Temp;Humidity;BMP_temperature;BMP_pressure;BME280_temperature;BME280_humidity;BME280_pressure;Samples;Min_cycle;Max_cycle;Signal;HPM_P1;HPM_P2
2021/04/15 00:01:26;;;;;;;5.80;4.85;;;;;;;7.41;68.85;100657.91;5068604;28;20052;-75
2021/04/15 00:03:51;;;;;;;6.60;4.70;;;;;;;7.33;68.70;100660.84;5068005;28;20051;-76
2021/04/15 00:06:23;;;;;;;7.03;4.63;;;;;;;7.45;69.30;100664.06;5051263;28;20036;-75
2021/04/15 00:08:49;;;;;;;7.93;4.72;;;;;;;7.66;69.04;100655.72;5051466;28;20135;-73
2021/04/15 00:11:18;;;;;;;6.22;4.63;;;;;;;7.69;68.36;100645.59;5068561;28;20070;-73
2021/04/15 00:13:46;;;;;;;9.73;4.80;;;;;;;7.73;67.92;100647.53;5068346;28;20106;-74
2021/04/15 00:16:13;;;;;;;7.47;5.68;;;;;;;7.71;68.80;100641.44;5056143;28;20119;-75
2021/04/15 00:18:38;;;;;;;6.65;5.10;;;;;;;7.67;68.27;100639.50;5068378;28;20032;-75
2021/04/15 00:21:06;;;;;;;7.57;4.85;;;;;;;7.49;68.13;100619.78;5068396;28;20041;-74
2021/04/15 00:23:31;;;;;;;6.57;4.60;;;;;;;7.63;68.14;100635.00;5068593;28;20508;-76
2021/04/15 00:25:58;;;;;;;10.48;6.65;;;;;;;7.48;67.25;100633.41;5068626;28;20036;-75
2021/04/15 00:28:23;;;;;;;6.13;4.63;;;;;;;7.16;67.53;100614.63;5068481;28;20032;-75
2021/04/15 00:30:50;;;;;;;7.28;5.13;;;;;;;7.24;68.80;100608.22;5049219;28;20047;-78
2021/04/15 00:33:16;;;;;;;5.80;4.65;;;;;;;7.24;67.64;100608.22;5050153;28;20108;-77
2021/04/15 00:35:42;;;;;;;6.20;4.78;;;;;;;7.26;69.73;100613.44;5050627;28;20033;-74
2021/04/15 00:38:10;;;;;;;7.00;5.47;;;;;;;7.06;68.33;100602.13;5050983;28;20035;-75
2021/04/15 00:40:37;;;;;;;6.43;5.00;;;;;;;6.79;68.34;100566.47;5050024;28;20029;-76
2021/04/15 00:43:04;;;;;;;6.13;4.72;;;;;;;7.20;69.07;100621.72;5050737;28;20475;-74
2021/04/15 00:45:35;;;;;;;7.90;4.80;;;;;;;7.19;68.63;100616.47;5050572;28;20553;-74
2021/04/15 00:48:08;;;;;;;5.75;4.38;;;;;;;6.81;67.39;100544.34;5050209;28;20025;-74
2021/04/15 00:51:09;;;;;;;6.03;4.95;;;;;;;7.00;68.16;100596.66;5050583;28;20483;-77
2021/04/15 00:53:43;;;;;;;6.32;4.68;;;;;;;6.73;67.36;100551.63;5050540;28;20032;-73
2021/04/15 00:56:10;;;;;;;5.63;4.60;;;;;;;6.46;67.58;100545.88;5050377;28;20025;-75
2021/04/15 00:58:36;;;;;;;5.97;4.75;;;;;;;6.68;67.91;100585.53;5050147;28;21467;-75
2021/04/15 01:01:03;;;;;;;6.40;4.75;;;;;;;6.61;68.62;100577.50;5054489;28;20028;-74
2021/04/15 01:03:29;;;;;;;7.65;4.97;;;;;;;6.14;68.63;100516.78;5054080;28;20107;-73
2021/04/15 01:05:54;;;;;;;7.25;5.28;;;;;;;6.19;68.26;100527.31;5054550;28;20025;-76
2021/04/15 01:08:20;;;;;;;6.47;4.65;;;;;;;6.51;68.43;100582.94;5054243;28;20031;-76
2021/04/15 01:10:57;;;;;;;7.35;5.03;;;;;;;6.59;67.77;100599.63;5053718;28;20066;-74
2021/04/15 01:13:37;;;;;;;7.43;5.15;;;;;;;6.61;68.26;100608.28;5053117;28;20511;-74
2021/04/15 01:16:13;;;;;;;6.53;5.05;;;;;;;6.78;68.13;100626.31;5054125;28;20032;-75
2021/04/15 01:18:49;;;;;;;6.95;4.35;;;;;;;6.63;67.13;100634.91;5054279;28;20184;-74
2021/04/15 01:22:08;;;;;;;41.47;16.85;;;;;;;6.75;68.25;100626.13;5053201;28;20028;-75
2021/04/15 01:24:41;;;;;;;7.50;4.75;;;;;;;6.81;67.66;100629.03;5051479;28;20065;-74
2021/04/15 01:27:37;;;;;;;6.80;5.03;;;;;;;6.62;66.54;100615.19;5051868;28;20029;-74
2021/04/15 01:30:14;;;;;;;6.20;4.80;;;;;;;6.37;67.54;100619.72;5051495;28;20132;-74
2021/04/15 01:33:14;;;;;;;6.00;4.68;;;;;;;6.22;67.79;100612.06;5051227;28;20033;-74
2021/04/15 01:35:45;;;;;;;5.43;3.53;;;;;;;6.32;67.66;100642.56;5011305;28;20114;-72
2021/04/15 01:38:35;;;;;;;5.93;4.50;;;;;;;6.25;68.42;100643.00;4999850;28;20096;-71
2021/04/15 01:41:12;;;;;;;6.50;4.78;;;;;;;6.28;68.85;100632.91;5003470;28;20038;-74
2021/04/15 01:43:55;;;;;;;6.28;4.32;;;;;;;6.27;69.54;100636.31;4994651;28;20138;-73
2021/04/15 01:46:26;;;;;;;6.00;4.65;;;;;;;5.84;69.27;100562.91;4988156;28;20042;-74
2021/04/15 01:48:53;;;;;;;6.40;4.57;;;;;;;6.23;69.69;100616.41;4990329;28;20187;-75
2021/04/15 01:51:22;;;;;;;7.32;5.38;;;;;;;6.13;70.46;100607.28;4991116;28;20034;-76
2021/04/15 01:53:59;;;;;;;6.18;4.60;;;;;;;6.01;69.11;100604.94;4990896;28;20043;-76
2021/04/15 01:56:42;;;;;;;7.70;4.90;;;;;;;5.80;69.33;100572.09;4991062;28;20050;-79
2021/04/15 01:59:19;;;;;;;5.80;4.70;;;;;;;6.04;68.97;100622.16;4988805;28;20587;-78
2021/04/15 02:01:49;;;;;;;6.10;4.30;;;;;;;6.02;68.99;100621.19;4991993;28;20162;-77
2021/04/15 02:04:38;;;;;;;6.20;4.75;;;;;;;5.97;69.03;100610.66;5002581;28;20045;-77
2021/04/15 02:07:11;;;;;;;7.10;4.13;;;;;;;5.81;69.03;100567.88;5003052;28;20085;-80
2021/04/15 02:09:42;;;;;;;7.30;4.88;;;;;;;6.13;67.74;100610.75;5010444;28;20120;-79
2021/04/15 02:12:18;;;;;;;8.27;4.95;;;;;;;5.68;69.05;100556.03;5007757;28;20041;-78
2021/04/15 02:14:47;;;;;;;7.00;3.95;;;;;;;5.95;68.83;100600.28;5034221;28;20033;-78
2021/04/15 02:17:14;;;;;;;6.03;4.82;;;;;;;6.07;69.64;100596.69;5036798;28;20026;-75
2021/04/15 02:19:45;;;;;;;6.70;4.40;;;;;;;5.95;69.28;100592.59;5034882;28;20563;-77
2021/04/15 02:22:28;;;;;;;5.97;4.07;;;;;;;6.09;69.28;100603.69;5034682;28;20064;-76
2021/04/15 02:25:21;;;;;;;6.35;4.78;;;;;;;6.12;70.09;100597.84;5039901;28;20032;-78
2021/04/15 02:28:02;;;;;;;7.35;4.78;;;;;;;6.06;68.93;100582.13;5008596;28;20459;-77
2021/04/15 02:30:41;;;;;;;7.05;3.85;;;;;;;6.23;69.12;100617.28;5009421;28;20042;-78
2021/04/15 02:33:15;;;;;;;6.45;4.60;;;;;;;6.20;69.44;100611.09;5009147;28;20037;-80
2021/04/15 02:35:49;;;;;;;7.25;4.35;;;;;;;6.07;70.45;100601.81;5010448;28;20520;-80
2021/04/15 02:38:21;;;;;;;5.65;3.80;;;;;;;6.10;69.11;100595.19;5009929;28;20527;-80
2021/04/15 02:40:52;;;;;;;5.82;3.95;;;;;;;6.14;69.30;100625.34;5010519;28;20033;-79
2021/04/15 02:43:38;;;;;;;6.40;4.60;;;;;;;6.28;69.55;100632.91;4997986;28;20046;-83
2021/04/15 02:46:11;;;;;;;6.28;4.15;;;;;;;6.18;69.39;100638.31;4995481;28;20047;-84
2021/04/15 02:48:39;;;;;;;7.10;4.00;;;;;;;6.19;69.39;100640.09;5009918;28;20558;-80
2021/04/15 02:51:14;;;;;;;7.05;4.78;;;;;;;6.37;70.22;100647.94;5009658;28;20057;-84
2021/04/15 02:53:48;;;;;;;22.27;10.98;;;;;;;6.46;69.64;100645.91;5009988;28;20026;-79
2021/04/15 02:56:23;;;;;;;7.60;3.90;;;;;;;6.10;69.80;100643.03;5009751;28;20080;-78
2021/04/15 02:58:54;;;;;;;6.88;4.20;;;;;;;5.93;70.30;100642.00;4992199;28;20121;-80
2021/04/15 03:01:24;;;;;;;6.35;3.92;;;;;;;5.82;70.73;100646.50;5009285;28;20037;-79
2021/04/15 03:03:52;;;;;;;9.52;5.82;;;;;;;5.77;70.80;100642.75;5013674;28;21211;-78
2021/04/15 03:06:26;;;;;;;7.80;4.30;;;;;;;5.95;70.64;100651.53;5049786;28;20022;-75
2021/04/15 03:08:59;;;;;;;5.38;3.88;;;;;;;5.98;69.25;100649.19;5049091;28;20470;-78
2021/04/15 03:11:38;;;;;;;6.13;4.30;;;;;;;6.02;68.97;100654.50;5050815;28;20116;-78
2021/04/15 03:14:09;;;;;;;6.25;4.35;;;;;;;6.12;69.01;100660.25;5038886;28;20028;-75
2021/04/15 03:16:40;;;;;;;6.25;4.38;;;;;;;5.82;68.99;100605.53;5032235;28;20057;-75
2021/04/15 03:19:29;;;;;;;6.25;4.80;;;;;;;5.99;69.93;100657.75;5031898;28;20100;-76
2021/04/15 03:22:06;;;;;;;7.47;4.43;;;;;;;5.71;69.77;100612.56;5068489;28;20411;-76
2021/04/15 03:24:43;;;;;;;5.75;4.20;;;;;;;5.79;69.61;100630.94;5068753;28;20090;-77
2021/04/15 03:27:14;;;;;;;5.68;4.32;;;;;;;6.09;69.59;100683.16;5069484;28;20049;-75
2021/04/15 03:29:47;;;;;;;6.90;4.47;;;;;;;5.93;70.31;100671.09;5052349;28;20414;-77
2021/04/15 03:32:28;;;;;;;5.63;4.35;;;;;;;5.93;70.86;100678.78;5052575;28;20036;-76
2021/04/15 03:35:16;;;;;;;6.18;4.40;;;;;;;5.64;70.66;100630.91;5068943;28;20438;-76
2021/04/15 03:38:00;;;;;;;6.57;4.30;;;;;;;5.83;71.47;100679.00;5069101;28;20033;-76
2021/04/15 03:40:29;;;;;;;5.80;4.28;;;;;;;5.86;71.25;100689.44;5065999;28;20530;-75
2021/04/15 03:43:02;;;;;;;6.00;4.32;;;;;;;5.77;71.36;100683.75;5069095;28;20055;-77
2021/04/15 03:45:40;;;;;;;5.75;4.35;;;;;;;5.88;71.49;100693.00;5068890;28;20032;-78
2021/04/15 03:48:09;;;;;;;6.90;4.60;;;;;;;5.99;70.90;100691.97;5052391;28;20037;-77
2021/04/15 03:50:56;;;;;;;6.53;4.38;;;;;;;6.12;70.79;100688.44;5069062;28;20042;-77
2021/04/15 03:53:35;;;;;;;6.82;4.32;;;;;;;5.95;71.97;100669.47;5056289;28;20056;-80
2021/04/15 03:56:05;;;;;;;6.05;4.45;;;;;;;6.14;71.45;100685.97;5051353;28;20021;-75
2021/04/15 03:58:41;;;;;;;6.90;4.45;;;;;;;6.06;71.26;100698.34;5050331;28;20124;-75
2021/04/15 04:01:12;;;;;;;5.68;4.18;;;;;;;6.05;71.84;100700.81;5051698;28;20025;-75
2021/04/15 04:03:40;;;;;;;6.30;4.75;;;;;;;6.12;72.42;100697.84;5049647;28;20516;-76
2021/04/15 04:06:14;;;;;;;6.00;4.53;;;;;;;6.01;72.46;100678.34;5051135;28;20036;-76
2021/04/15 04:08:49;;;;;;;9.93;5.63;;;;;;;6.18;73.05;100690.50;5051246;28;20028;-77
2021/04/15 04:11:19;;;;;;;6.90;4.90;;;;;;;5.97;71.79;100690.97;5064882;28;20045;-75
2021/04/15 04:13:58;;;;;;;7.22;4.78;;;;;;;6.14;72.32;100702.25;5050612;28;20526;-75
2021/04/15 04:17:02;;;;;;;7.18;5.28;;;;;;;6.17;72.60;100706.66;5049663;28;20037;-75
2021/04/15 04:19:39;;;;;;;7.78;4.75;;;;;;;6.30;73.04;100718.50;5028521;28;20036;-77
2021/04/15 04:22:10;;;;;;;8.70;4.72;;;;;;;6.26;72.14;100691.81;5026380;28;20120;-75
2021/04/15 04:24:52;;;;;;;6.28;4.68;;;;;;;6.60;71.60;100736.47;4999042;28;20055;-77
2021/04/15 04:27:32;;;;;;;8.35;4.20;;;;;;;6.47;71.34;100747.72;5012106;28;20080;-76
2021/04/15 04:30:08;;;;;;;6.32;4.40;;;;;;;6.34;71.58;100734.97;5028057;28;20369;-80
2021/04/15 04:32:35;;;;;;;5.57;4.35;;;;;;;6.25;71.10;100738.75;5035056;28;20033;-76
2021/04/15 04:35:04;;;;;;;6.90;4.65;;;;;;;6.12;71.04;100742.28;5029344;28;20045;-76
2021/04/15 04:37:42;;;;;;;6.93;4.32;;;;;;;6.22;70.48;100746.28;5027448;28;20113;-78
2021/04/15 04:40:14;;;;;;;6.38;4.13;;;;;;;5.76;70.49;100671.75;5026488;28;20054;-77
2021/04/15 04:42:43;;;;;;;7.43;4.70;;;;;;;6.26;70.92;100768.72;5007970;28;20132;-76
2021/04/15 04:45:09;;;;;;;7.70;4.07;;;;;;;6.18;69.71;100759.72;4992048;28;20152;-77
2021/04/15 04:47:45;;;;;;;5.47;4.13;;;;;;;6.26;69.36;100762.72;5007873;28;20030;-77
2021/04/15 04:53:45;;;;;;;5.80;4.40;;;;;;;6.32;68.51;100770.78;5357385;22;20024;-76
2021/04/15 04:56:17;;;;;;;6.90;5.28;;;;;;;6.25;69.42;100774.63;5051378;28;20067;-75
2021/04/15 04:58:49;;;;;;;5.45;4.60;;;;;;;6.09;69.17;100764.28;5051599;28;20029;-75
2021/04/15 05:01:15;;;;;;;5.93;4.28;;;;;;;6.14;69.81;100765.44;5048250;28;20040;-76
2021/04/15 05:03:41;;;;;;;6.47;4.70;;;;;;;6.21;70.62;100767.56;5042768;28;20435;-75
2021/04/15 05:06:19;;;;;;;7.07;4.43;;;;;;;6.38;69.35;100778.84;5031015;28;20117;-77
2021/04/15 05:08:53;;;;;;;6.50;4.35;;;;;;;6.32;70.16;100784.47;5031153;28;20025;-76
2021/04/15 05:14:30;;;;;;;11.45;6.85;;;;;;;5.98;70.21;100685.09;5151724;23;20504;-78
2021/04/15 05:17:05;;;;;;;9.48;5.30;;;;;;;6.43;69.99;100781.66;5034625;28;20033;-76
2021/04/15 05:19:34;;;;;;;6.80;4.90;;;;;;;6.46;70.68;100787.84;5029321;28;20036;-77
2021/04/15 05:22:01;;;;;;;6.10;4.90;;;;;;;6.41;70.49;100789.25;5027638;28;20515;-79
2021/04/15 05:24:32;;;;;;;7.28;5.13;;;;;;;6.39;69.44;100775.47;5011397;28;20428;-78
2021/04/15 05:30:44;;;;;;;8.15;4.63;;;;;;;6.60;70.80;100786.09;5146642;23;20060;-75
2021/04/15 05:33:16;;;;;;;6.93;4.50;;;;;;;6.42;69.00;100778.22;5030806;28;20025;-76
2021/04/15 05:35:46;;;;;;;7.30;4.25;;;;;;;6.41;69.86;100801.22;5029384;28;20030;-76
2021/04/15 05:38:13;;;;;;;5.93;4.60;;;;;;;6.25;69.92;100784.91;5031183;28;20454;-76
2021/04/15 05:40:39;;;;;;;6.47;4.93;;;;;;;6.49;69.54;100794.81;5030639;28;20033;-76
2021/04/15 05:43:27;;;;;;;6.03;4.60;;;;;;;6.65;69.21;100794.03;5030821;28;20080;-76
2021/04/15 05:46:02;;;;;;;6.00;4.65;;;;;;;6.68;69.80;100783.06;5030626;28;20514;-80
2021/04/15 05:48:28;;;;;;;6.30;4.57;;;;;;;6.78;67.83;100791.41;5033272;28;20059;-76
2021/04/15 05:50:56;;;;;;;6.03;4.47;;;;;;;6.73;68.35;100792.81;5034719;28;20088;-76
2021/04/15 05:53:34;;;;;;;6.47;4.85;;;;;;;6.62;68.76;100763.97;5034344;28;20448;-76
2021/04/15 05:56:12;;;;;;;6.15;4.72;;;;;;;6.55;69.24;100746.44;5034178;28;20036;-76
2021/04/15 05:58:54;;;;;;;10.60;4.38;;;;;;;6.73;68.05;100776.53;5034334;28;20033;-76
2021/04/15 06:01:41;;;;;;;7.85;4.65;;;;;;;6.91;68.01;100808.38;5034206;28;20040;-76
2021/04/15 06:04:36;;;;;;;13.20;4.53;;;;;;;6.62;67.85;100774.22;5034100;28;20040;-76
2021/04/15 06:07:05;;;;;;;6.03;4.45;;;;;;;6.84;68.10;100805.38;5034331;28;20030;-76
2021/04/15 06:09:30;;;;;;;6.80;4.63;;;;;;;6.78;68.65;100796.53;5032889;28;20029;-76
2021/04/15 06:12:09;;;;;;;7.50;4.50;;;;;;;6.80;68.09;100804.31;5033940;28;20034;-77
2021/04/15 06:14:51;;;;;;;6.20;4.97;;;;;;;6.96;68.55;100804.38;5033812;28;20064;-76
2021/04/15 06:17:28;;;;;;;6.68;5.20;;;;;;;7.09;67.87;100805.97;5033746;28;20091;-76
2021/04/15 06:20:04;;;;;;;6.50;4.97;;;;;;;6.92;68.23;100779.34;5033804;28;20112;-77
2021/04/15 06:22:33;;;;;;;11.70;7.40;;;;;;;7.17;68.37;100795.25;5033961;28;20037;-77
2021/04/15 06:25:05;;;;;;;15.20;10.90;;;;;;;7.00;69.24;100748.09;5033646;28;20018;-79
2021/04/15 06:27:31;;;;;;;6.07;4.63;;;;;;;7.07;67.81;100802.44;5033403;28;20057;-76
2021/04/15 06:30:02;;;;;;;8.45;5.00;;;;;;;6.56;68.42;100699.50;5033587;28;20567;-77
2021/04/15 06:33:00;;;;;;;8.07;6.28;;;;;;;7.19;68.72;100801.34;5033516;28;20029;-76
2021/04/15 06:35:29;;;;;;;6.28;4.70;;;;;;;7.26;68.18;100796.66;5033596;28;20038;-76
2021/04/15 06:38:05;;;;;;;5.90;4.50;;;;;;;7.24;68.57;100754.59;5033661;28;20030;-75
2021/04/15 06:40:52;;;;;;;5.72;4.43;;;;;;;7.50;66.29;100790.19;5033700;28;20076;-76
2021/04/15 06:43:27;;;;;;;6.88;5.72;;;;;;;7.61;68.40;100790.00;5032324;28;20519;-76
2021/04/15 06:46:27;;;;;;;5.80;4.50;;;;;;;7.81;67.74;100791.84;5033424;28;20025;-76
2021/04/15 06:49:15;;;;;;;7.40;4.47;;;;;;;7.73;65.21;100773.47;4991948;28;20030;-76
2021/04/15 06:51:43;;;;;;;6.85;4.13;;;;;;;7.92;64.99;100786.50;4991578;28;20126;-76
2021/04/15 06:54:49;;;;;;;5.70;4.50;;;;;;;8.04;63.49;100780.22;4992040;28;20374;-76
2021/04/15 06:57:51;;;;;;;5.45;3.90;;;;;;;7.90;64.32;100785.53;4932741;29;20514;-75
2021/04/15 07:00:35;;;;;;;5.32;3.83;;;;;;;8.06;63.61;100786.31;4933713;29;20044;-75
2021/04/15 07:03:11;;;;;;;6.03;4.57;;;;;;;8.28;64.31;100788.31;4932234;29;20046;-76
2021/04/15 07:05:55;;;;;;;7.05;4.75;;;;;;;8.28;64.03;100787.44;4914294;29;20032;-76
2021/04/15 07:08:42;;;;;;;18.75;8.85;;;;;;;8.54;64.17;100794.81;4914493;29;20039;-75
2021/04/15 07:11:42;;;;;;;6.40;4.82;;;;;;;8.76;62.37;100777.88;4914380;29;20047;-75
2021/04/15 07:14:16;;;;;;;15.50;9.35;;;;;;;8.89;60.53;100793.09;4914212;29;20107;-76
2021/04/15 07:17:05;;;;;;;13.63;9.73;;;;;;;9.05;59.38;100791.28;4914152;29;20051;-76
2021/04/15 07:20:01;;;;;;;56.88;22.25;;;;;;;9.25;61.39;100787.09;4913877;29;20463;-76
2021/04/15 07:22:52;;;;;;;8.32;5.07;;;;;;;9.20;60.60;100799.75;4920740;29;20043;-76
2021/04/15 07:25:38;;;;;;;5.25;4.28;;;;;;;8.81;58.97;100793.53;4932813;29;20183;-76
2021/04/15 07:28:32;;;;;;;6.03;4.38;;;;;;;8.87;61.22;100794.75;4916958;29;20063;-76
2021/04/15 07:31:16;;;;;;;5.88;4.47;;;;;;;8.96;59.69;100798.56;4932517;29;20107;-76
2021/04/15 07:34:07;;;;;;;6.95;4.45;;;;;;;8.97;58.90;100792.59;5002827;28;20096;-76
2021/04/15 07:36:47;;;;;;;4.90;3.40;;;;;;;9.18;57.53;100779.88;5010269;28;20096;-76
2021/04/15 07:39:31;;;;;;;5.03;3.70;;;;;;;9.21;56.66;100760.28;5010338;28;20077;-76
2021/04/15 07:41:56;;;;;;;4.88;3.22;;;;;;;9.48;57.29;100787.28;5010394;28;20084;-76
2021/04/15 07:45:12;;;;;;;4.97;3.20;;;;;;;9.73;56.73;100784.13;5009988;28;20460;-76
2021/04/15 07:48:09;;;;;;;5.78;3.53;;;;;;;9.85;56.37;100776.94;4950358;28;20194;-75
2021/04/15 07:51:22;;;;;;;4.20;3.40;;;;;;;9.98;56.40;100767.16;4931645;28;20046;-76
2021/04/15 07:54:02;;;;;;;4.22;3.05;;;;;;;10.29;55.12;100773.66;4932477;29;20151;-76
2021/04/15 07:56:48;;;;;;;4.95;3.20;;;;;;;10.35;53.93;100774.81;4932326;29;20039;-76
2021/04/15 07:59:43;;;;;;;4.18;3.15;;;;;;;10.41;54.48;100770.78;4932425;29;20036;-76
2021/04/15 08:02:26;;;;;;;5.07;3.47;;;;;;;10.24;55.62;100728.72;4932518;29;20047;-76
2021/04/15 08:05:12;;;;;;;5.30;3.40;;;;;;;10.49;55.97;100771.97;4932075;29;20038;-76
2021/04/15 08:07:43;;;;;;;5.35;3.05;;;;;;;10.76;54.25;100767.06;4932346;29;20114;-76
2021/04/15 08:10:41;;;;;;;5.72;3.22;;;;;;;10.88;54.09;100765.78;4932300;29;20047;-76
2021/04/15 08:13:47;;;;;;;4.28;3.08;;;;;;;10.98;54.31;100765.38;4875794;29;20053;-75
2021/04/15 08:16:21;;;;;;;23.65;11.07;;;;;;;11.05;55.59;100764.75;4838691;29;20053;-76
2021/04/15 08:19:00;;;;;;;8.95;4.70;;;;;;;10.95;54.06;100706.72;4839026;29;20058;-76
2021/04/15 08:21:33;;;;;;;4.22;3.25;;;;;;;11.39;53.73;100760.94;4838616;29;20112;-76
2021/04/15 08:24:12;;;;;;;5.47;3.13;;;;;;;11.21;54.36;100752.47;4872747;29;20073;-76
2021/04/15 08:26:59;;;;;;;4.50;3.20;;;;;;;11.05;56.64;100759.59;4875741;29;20099;-75
2021/04/15 08:29:46;;;;;;;4.55;3.00;;;;;;;10.66;55.17;100760.63;4875304;29;20049;-74
2021/04/15 08:32:38;;;;;;;3.85;2.70;;;;;;;10.60;55.53;100756.94;4875911;29;20033;-75
2021/04/15 08:35:54;;;;;;;5.45;3.22;;;;;;;10.85;54.49;100756.22;4875703;29;20041;-76
2021/04/15 08:38:22;;;;;;;76.60;31.85;;;;;;;10.92;56.48;100749.63;4875685;29;20040;-75
2021/04/15 08:41:11;;;;;;;8.98;5.35;;;;;;;11.30;55.20;100748.53;4875232;29;20131;-75
2021/04/15 08:43:55;;;;;;;5.07;3.20;;;;;;;11.46;53.97;100742.25;4878082;29;20507;-74
2021/04/15 08:46:51;;;;;;;5.43;3.60;;;;;;;11.51;54.05;100726.03;4892290;29;20044;-78
2021/04/15 08:49:28;;;;;;;4.50;3.22;;;;;;;11.15;54.66;100745.34;4901000;28;20484;-79
2021/04/15 08:52:14;;;;;;;5.10;3.60;;;;;;;10.86;55.40;100744.22;4986534;28;20632;-80
2021/04/15 08:54:59;;;;;;;7.03;3.55;;;;;;;11.06;56.77;100739.81;5029632;28;20029;-76
2021/04/15 08:57:51;;;;;;;4.28;2.95;;;;;;;10.94;54.87;100722.13;5029663;28;20037;-75
2021/04/15 09:00:31;;;;;;;4.43;3.40;;;;;;;11.04;55.50;100725.97;5029121;28;20052;-78
2021/04/15 09:03:26;;;;;;;4.90;3.72;;;;;;;11.32;52.63;100727.91;5028408;28;20033;-74
2021/04/15 09:06:16;;;;;;;5.03;3.22;;;;;;;11.08;52.30;100695.13;4988362;28;20142;-75
2021/04/15 09:08:56;;;;;;;4.57;3.33;;;;;;;11.62;51.65;100727.28;4988660;28;20038;-75
2021/04/15 09:11:33;;;;;;;;;;;;;;;11.40;55.34;100723.03;4989909;28;20081;-75
2021/04/15 09:14:01;;;;;;;4.63;3.20;;;;;;;11.66;55.16;100724.00;4989355;28;19916;-75
2021/04/15 09:16:35;;;;;;;5.65;3.42;;;;;;;11.56;54.00;100715.00;4989030;28;20050;-75
2021/04/15 09:19:38;;;;;;;7.07;3.80;;;;;;;11.51;54.34;100715.69;4989270;28;20027;-75
2021/04/15 09:22:18;;;;;;;6.55;3.33;;;;;;;11.47;53.64;100718.13;4992862;28;20033;-75
2021/04/15 09:25:17;;;;;;;9.35;3.80;;;;;;;11.58;53.25;100707.31;4993145;28;20117;-75
2021/04/15 09:28:07;;;;;;;5.82;3.67;;;;;;;11.79;53.43;100715.84;4993118;28;20520;-76
2021/04/15 09:30:43;;;;;;;;;;;;;;;12.10;53.46;100709.22;4993210;28;20429;-75
2021/04/15 09:33:33;;;;;;;8.50;3.97;;;;;;;12.42;53.96;100701.66;4993090;28;19914;-75
2021/04/15 09:36:04;;;;;;;6.50;3.90;;;;;;;12.34;52.87;100656.50;4992829;28;20429;-75
2021/04/15 09:38:38;;;;;;;7.80;4.53;;;;;;;12.67;51.32;100696.38;4992580;28;20030;-75
2021/04/15 09:41:22;;;;;;;8.45;4.07;;;;;;;12.78;49.69;100695.00;4992806;28;20061;-75
2021/04/15 09:43:59;;;;;;;4.85;3.33;;;;;;;12.27;50.35;100641.59;5030652;28;20107;-75
2021/04/15 09:46:37;;;;;;;4.85;4.00;;;;;;;12.60;50.82;100691.00;5034508;28;20036;-75
2021/04/15 09:49:15;;;;;;;5.72;3.92;;;;;;;12.65;51.35;100673.03;5033157;28;20079;-75
2021/04/15 09:51:53;;;;;;;6.90;4.40;;;;;;;12.72;52.41;100682.75;5033754;28;20037;-75
2021/04/15 09:54:52;;;;;;;5.68;4.15;;;;;;;12.71;50.47;100680.09;5031669;28;20388;-75
2021/04/15 09:57:40;;;;;;;6.65;3.60;;;;;;;12.54;50.78;100680.44;5020553;28;20048;-78
2021/04/15 10:00:28;;;;;;;5.20;3.50;;;;;;;12.58;50.50;100666.75;5031977;28;20033;-75
2021/04/15 10:03:19;;;;;;;5.78;3.85;;;;;;;12.39;51.05;100626.47;5031597;28;20396;-75
2021/04/15 10:06:03;;;;;;;5.07;3.28;;;;;;;12.69;49.76;100664.53;5031346;28;20025;-74
2021/04/15 10:08:46;;;;;;;7.43;4.00;;;;;;;12.54;51.64;100653.69;5032387;28;20025;-76
2021/04/15 10:11:27;;;;;;;8.30;4.18;;;;;;;12.72;50.74;100656.84;5033621;28;20033;-72
2021/04/15 10:14:12;;;;;;;4.70;3.47;;;;;;;12.90;50.69;100661.72;5032193;28;20022;-73
2021/04/15 10:17:02;;;;;;;6.28;4.20;;;;;;;13.05;53.39;100650.94;5027493;28;20034;-76
2021/04/15 10:19:32;;;;;;;4.30;3.53;;;;;;;13.00;52.53;100652.50;5024104;28;20026;-77
2021/04/15 10:22:28;;;;;;;5.20;3.80;;;;;;;12.86;51.51;100653.78;5012370;28;20102;-76
2021/04/15 10:25:06;;;;;;;5.57;3.88;;;;;;;12.76;51.81;100645.75;5021739;28;20094;-78
2021/04/15 10:27:34;;;;;;;5.75;3.90;;;;;;;12.50;52.37;100644.94;5020503;28;20017;-70
2021/04/15 10:30:36;;;;;;;7.57;3.80;;;;;;;12.41;52.93;100647.22;5029138;28;20103;-72
2021/04/15 10:33:18;;;;;;;5.55;4.20;;;;;;;12.74;54.33;100650.00;5019373;28;20069;-73
2021/04/15 10:36:13;;;;;;;5.05;3.50;;;;;;;12.88;50.87;100641.78;5019588;28;20034;-73
2021/04/15 10:38:45;;;;;;;6.47;3.90;;;;;;;12.84;51.41;100642.53;5036653;28;20059;-74
2021/04/15 10:41:44;;;;;;;5.68;4.32;;;;;;;12.85;52.64;100641.69;5028158;28;20040;-73
2021/04/15 10:44:22;;;;;;;7.22;4.20;;;;;;;12.94;51.84;100627.28;5013173;28;20061;-75
2021/04/15 10:47:01;;;;;;;5.35;3.58;;;;;;;12.93;51.83;100641.09;5013382;28;20451;-75
2021/04/15 10:49:36;;;;;;;5.38;3.75;;;;;;;12.89;52.16;100630.59;5033203;28;20030;-75
2021/04/15 10:52:36;;;;;;;5.95;3.90;;;;;;;12.88;52.09;100639.19;5032705;28;20056;-77
2021/04/15 10:55:12;;;;;;;9.27;4.10;;;;;;;12.97;51.02;100631.66;5035102;28;20045;-75
2021/04/15 10:57:38;;;;;;;4.47;3.42;;;;;;;12.74;50.17;100628.41;5020852;28;20057;-76
2021/04/15 11:00:32;;;;;;;5.03;3.45;;;;;;;12.44;51.68;100598.13;5019965;28;20127;-76
2021/04/15 11:03:16;;;;;;;5.28;3.80;;;;;;;12.81;51.03;100613.91;5014514;28;20041;-75
2021/04/15 11:05:52;;;;;;;4.65;3.65;;;;;;;12.91;51.05;100631.47;5029214;28;20036;-80
2021/04/15 11:08:26;;;;;;;5.60;3.67;;;;;;;12.94;50.35;100629.00;5029850;28;20029;-76
2021/04/15 11:11:19;;;;;;;5.60;3.58;;;;;;;13.08;49.94;100635.47;5029429;28;20415;-76
2021/04/15 11:13:45;;;;;;;6.82;3.67;;;;;;;13.14;50.59;100629.59;5028188;28;20038;-77
2021/04/15 11:16:23;;;;;;;5.72;3.63;;;;;;;13.01;49.27;100598.94;5031405;28;20021;-76
2021/04/15 11:18:50;;;;;;;8.20;4.13;;;;;;;13.18;50.12;100640.91;5030771;28;20025;-75
2021/04/15 11:21:24;;;;;;;9.10;4.40;;;;;;;13.10;50.63;100631.19;5031227;28;20087;-76
2021/04/15 11:23:52;;;;;;;6.25;4.40;;;;;;;13.05;50.53;100632.78;5024001;28;20036;-74
2021/04/15 11:26:26;;;;;;;5.45;3.05;;;;;;;12.90;49.40;100629.75;5027098;28;20087;-74
2021/04/15 11:28:58;;;;;;;5.97;3.97;;;;;;;13.02;48.55;100631.81;5030656;28;20159;-78
2021/04/15 11:31:29;;;;;;;6.57;3.78;;;;;;;13.37;49.06;100632.88;5031311;28;20045;-74
2021/04/15 11:34:14;;;;;;;7.20;4.03;;;;;;;13.18;49.93;100589.94;5031273;28;20025;-73
2021/04/15 11:36:57;;;;;;;4.85;3.83;;;;;;;13.46;49.92;100636.53;5030325;28;20403;-77
2021/04/15 11:39:26;;;;;;;5.00;4.00;;;;;;;13.35;50.03;100639.69;5031476;28;20269;-76
2021/04/15 11:41:59;;;;;;;6.00;3.42;;;;;;;13.55;48.53;100627.31;5031026;28;20048;-75
2021/04/15 11:44:45;;;;;;;4.22;3.45;;;;;;;13.71;48.45;100623.41;5030669;28;20049;-76
2021/04/15 11:47:26;;;;;;;4.50;3.17;;;;;;;13.46;48.29;100626.16;5031141;28;20057;-75
2021/04/15 11:50:05;;;;;;;5.07;4.00;;;;;;;13.68;48.41;100623.34;5023428;28;20036;-75
2021/04/15 11:52:41;;;;;;;5.05;3.28;;;;;;;13.29;48.19;100612.72;5030379;28;20064;-75
2021/04/15 11:55:32;;;;;;;4.07;3.15;;;;;;;13.25;50.54;100620.41;5030944;28;20104;-76
2021/04/15 11:58:02;;;;;;;5.95;4.35;;;;;;;13.39;50.04;100615.63;5030716;28;20024;-75
2021/04/15 12:00:34;;;;;;;4.72;3.08;;;;;;;13.27;48.55;100600.59;5030602;28;20491;-74
2021/04/15 12:03:00;;;;;;;5.20;3.40;;;;;;;13.50;48.99;100602.97;5030599;28;20036;-74
2021/04/15 12:05:32;;;;;;;5.22;4.68;;;;;;;13.71;49.08;100597.47;5030670;28;20026;-74
2021/04/15 12:08:17;;;;;;;6.35;3.95;;;;;;;14.01;48.62;100601.69;5025239;28;20095;-75
2021/04/15 12:10:47;;;;;;;4.97;3.40;;;;;;;14.16;47.18;100592.53;5026863;28;20029;-76
2021/04/15 12:13:21;;;;;;;6.20;3.42;;;;;;;13.92;47.70;100557.34;5016872;28;20425;-74
2021/04/15 12:16:03;;;;;;;5.38;3.42;;;;;;;14.16;47.69;100587.34;5013068;28;20042;-74
2021/04/15 12:18:35;;;;;;;4.22;3.67;;;;;;;14.34;47.23;100592.06;5011190;28;20018;-75
2021/04/15 12:21:19;;;;;;;4.93;3.53;;;;;;;14.51;46.90;100582.09;5011095;28;20116;-75
2021/04/15 12:23:56;;;;;;;6.90;3.90;;;;;;;14.49;46.24;100582.06;5025428;28;20033;-73
2021/04/15 12:26:58;;;;;;;4.85;3.58;;;;;;;14.51;46.90;100571.69;5027291;28;20037;-75
2021/04/15 12:29:32;;;;;;;5.10;3.70;;;;;;;14.26;46.68;100526.13;5009370;28;20069;-77
2021/04/15 12:32:05;;;;;;;7.68;6.47;;;;;;;14.41;46.46;100578.41;5025545;28;20033;-76